Pagrindinis puslapis
METAR-TAF:

METAR-TAF

Oro uostai :

Abidžanas, Dramblio Kaulo Krantas

platuma: 05-15N, ilguma: 003-56W, Aukštis: 7 m

Dabartinis oras

Ataskaita buvo paskelbta 48 minutes, ne 09:00 UTC
Vėjas 3 kt iš Šiaurės/Šiaurės Rytų, svyruoja nuo Šiaurės/Šiaurės Vakarų ir Rytų/Pietryčių
Temperatūra 28°C
Drėgmė 89%
Slėgis 1012 hPa
Matomumas: 6000 m
Mažai debesys ne aukštis 1100 ft

METAR: DIAP 090900Z 03003KT 340V120 6000 FEW011 28/26 Q1012 NOSIG

Laikas: 09:48 (09:48 UTC)

Prognozė

Ataskaita buvo paskelbta 4 valandos ir 48 minutes, ne 05:00 UTC
Prognozė galioja nuo 09 metu 06 UTC su 10 metu 12 UTC
Vėjas 3 kt iš Pietų/Pietvakarių
Matomumas: 8000 m
Išsisklaidę debesys ne aukštis 1200 ft
Laikinai
nuo 09 metu 18 UTC su 09 metu 22 UTC
Su prošvaistėmis ne aukštis 1200 ft
Mažai debesys ne aukštis 2000 ft, Liūtiniai kamuoliniai debesys.
perkūnija

TAF: DIAP 090500Z 0906/1012 20003KT 8000 SCT012 TEMPO 0918/0922 TS BKN012 FEW020CB

Orai ataskaitas ir orų prognozės (METAR, TAF).

turimą stotys yra geltonos ir raudonos taškus žemėlapyje.

Perkelti pele per norėdami pamatyti stoties vardą.

Tada spustelėkite, norėdami matyti oro stebėjimo ir prognozės.

Norėdami pakeisti žemėlapį: spustelėkite ant žalios mygtukų su juodo kryžiaus žemyn,; žalią mygtuką su brūkšneliu, jei norite nutolinti; arba žalių rodyklių gretimoms žemėlapius.


METAR-TAF: